Time,TemperatureF,DewpointF,PressureIn,WindDirection,WindDirectionDegrees,WindSpeedMPH,WindSpeedGustMPH,Humidity,HourlyPrecipIn,Conditions,Clouds,dailyrainin,SolarRadiationWatts/m^2,SoftwareType,DateUTC
2014-12-24 00:02:00,55.0,24.0,-100.00,NNE,31,11.0,25.0,30,0.00,,,0.00,0.000000,,2014-12-24 08:02:00,
2014-12-24 00:11:00,55.0,24.0,-100.00,NNE,31,11.0,25.0,30,0.00,,,0.00,0.000000,,2014-12-24 08:11:00,
2014-12-24 00:42:00,57.0,22.0,-100.00,NNE,30,11.0,26.0,26,0.00,,,0.00,0.000000,,2014-12-24 08:42:00,
2014-12-24 00:53:00,57.0,22.0,-100.00,NNE,30,11.0,26.0,26,0.00,,,0.00,0.000000,,2014-12-24 08:53:00,
2014-12-24 01:02:00,57.0,22.0,-100.00,NNE,30,11.0,26.0,26,0.00,,,0.00,0.000000,,2014-12-24 09:02:00,
2014-12-24 01:11:00,57.0,22.0,-100.00,NNE,30,11.0,26.0,26,0.00,,,0.00,0.000000,,2014-12-24 09:11:00,
2014-12-24 01:43:00,58.0,18.0,-100.00,NE,48,8.0,18.0,21,0.00,,,0.00,0.000000,,2014-12-24 09:43:00,
2014-12-24 01:53:00,58.0,18.0,-100.00,NE,48,8.0,18.0,21,0.00,,,0.00,0.000000,,2014-12-24 09:53:00,
2014-12-24 02:04:00,58.0,18.0,-100.00,NE,48,8.0,18.0,21,0.00,,,0.00,0.000000,,2014-12-24 10:04:00,
2014-12-24 02:13:00,58.0,18.0,-100.00,NE,48,8.0,18.0,21,0.00,,,0.00,0.000000,,2014-12-24 10:13:00,
2014-12-24 02:43:00,55.0,19.0,-100.00,NE,38,2.0,14.0,24,0.00,,,0.00,0.000000,,2014-12-24 10:43:00,
2014-12-24 02:53:00,55.0,19.0,-100.00,NE,38,2.0,14.0,24,0.00,,,0.00,0.000000,,2014-12-24 10:53:00,
2014-12-24 03:03:00,55.0,19.0,-100.00,NE,38,2.0,14.0,24,0.00,,,0.00,0.000000,,2014-12-24 11:03:00,
2014-12-24 03:12:00,55.0,19.0,-100.00,NE,38,2.0,14.0,24,0.00,,,0.00,0.000000,,2014-12-24 11:12:00,
2014-12-24 03:43:00,55.0,15.0,-100.00,ENE,57,10.0,16.0,20,0.00,,,0.00,0.000000,,2014-12-24 11:43:00,
2014-12-24 03:52:00,55.0,15.0,-100.00,ENE,57,10.0,16.0,20,0.00,,,0.00,0.000000,,2014-12-24 11:52:00,
2014-12-24 04:03:00,55.0,15.0,-100.00,ENE,57,10.0,16.0,20,0.00,,,0.00,0.000000,,2014-12-24 12:03:00,
2014-12-24 04:12:00,55.0,15.0,-100.00,ENE,57,10.0,16.0,20,0.00,,,0.00,0.000000,,2014-12-24 12:12:00,
2014-12-24 04:42:00,52.0,13.0,-100.00,NNE,29,4.0,21.0,21,0.00,,,0.00,0.000000,,2014-12-24 12:42:00,
2014-12-24 04:52:00,52.0,13.0,-100.00,NNE,29,4.0,21.0,21,0.00,,,0.00,0.000000,,2014-12-24 12:52:00,
2014-12-24 05:02:00,52.0,13.0,-100.00,NNE,29,4.0,21.0,21,0.00,,,0.00,0.000000,,2014-12-24 13:02:00,
2014-12-24 05:11:00,52.0,13.0,-100.00,NNE,29,4.0,21.0,21,0.00,,,0.00,0.000000,,2014-12-24 13:11:00,
2014-12-24 05:42:00,50.0,14.0,-100.00,North,6,3.0,11.0,23,0.00,,,0.00,0.000000,,2014-12-24 13:42:00,
2014-12-24 05:52:00,50.0,14.0,-100.00,North,6,3.0,11.0,23,0.00,,,0.00,0.000000,,2014-12-24 13:52:00,
2014-12-24 06:02:00,50.0,14.0,-100.00,North,6,3.0,11.0,23,0.00,,,0.00,0.000000,,2014-12-24 14:02:00,
2014-12-24 06:12:00,50.0,14.0,-100.00,North,6,3.0,11.0,23,0.00,,,0.00,0.000000,,2014-12-24 14:12:00,
2014-12-24 06:42:00,50.0,14.0,-100.00,NE,50,2.0,7.0,23,0.00,,,0.00,0.000000,,2014-12-24 14:42:00,
2014-12-24 06:52:00,50.0,14.0,-100.00,NE,50,2.0,7.0,23,0.00,,,0.00,0.000000,,2014-12-24 14:52:00,
2014-12-24 07:02:00,50.0,14.0,-100.00,NE,50,2.0,7.0,23,0.00,,,0.00,0.000000,,2014-12-24 15:02:00,
2014-12-24 07:12:00,50.0,14.0,-100.00,NE,50,2.0,7.0,23,0.00,,,0.00,0.000000,,2014-12-24 15:12:00,
2014-12-24 07:44:00,45.0,19.0,-100.00,North,4,2.0,5.0,35,0.00,,,0.00,15.000000,,2014-12-24 15:44:00,
2014-12-24 07:53:00,45.0,19.0,-100.00,North,4,2.0,5.0,35,0.00,,,0.00,15.000000,,2014-12-24 15:53:00,
2014-12-24 08:03:00,45.0,19.0,-100.00,North,4,2.0,5.0,35,0.00,,,0.00,15.000000,,2014-12-24 16:03:00,
2014-12-24 08:12:00,45.0,19.0,-100.00,North,4,2.0,5.0,35,0.00,,,0.00,15.000000,,2014-12-24 16:12:00,
2014-12-24 08:43:00,55.0,24.0,-100.00,SSW,210,1.0,3.0,30,0.00,,,0.00,217.000000,,2014-12-24 16:43:00,
2014-12-24 08:53:00,55.0,24.0,-100.00,SSW,210,1.0,3.0,30,0.00,,,0.00,217.000000,,2014-12-24 16:53:00,
2014-12-24 09:02:00,55.0,24.0,-100.00,SSW,210,1.0,3.0,30,0.00,,,0.00,217.000000,,2014-12-24 17:02:00,
2014-12-24 09:52:00,64.0,21.0,-100.00,North,-999,0.0,2.0,19,0.00,,,0.00,406.000000,,2014-12-24 17:52:00,
2014-12-24 10:02:00,64.0,21.0,-100.00,North,-999,0.0,2.0,19,0.00,,,0.00,406.000000,,2014-12-24 18:02:00,
2014-12-24 10:12:00,64.0,21.0,-100.00,North,-999,0.0,2.0,19,0.00,,,0.00,406.000000,,2014-12-24 18:12:00,
2014-12-24 10:42:00,68.0,22.0,-100.00,WSW,244,3.0,6.0,17,0.00,,,0.00,541.000000,,2014-12-24 18:42:00,
2014-12-24 10:52:00,68.0,22.0,-100.00,WSW,244,3.0,6.0,17,0.00,,,0.00,541.000000,,2014-12-24 18:52:00,
2014-12-24 11:02:00,68.0,22.0,-100.00,WSW,244,3.0,6.0,17,0.00,,,0.00,541.000000,,2014-12-24 19:02:00,
2014-12-24 11:12:00,68.0,22.0,-100.00,WSW,244,3.0,6.0,17,0.00,,,0.00,541.000000,,2014-12-24 19:12:00,
2014-12-24 11:43:00,68.0,20.0,-100.00,SSW,203,7.0,14.0,16,0.00,,,0.00,612.000000,,2014-12-24 19:43:00,
2014-12-24 11:53:00,68.0,20.0,-100.00,SSW,203,7.0,14.0,16,0.00,,,0.00,612.000000,,2014-12-24 19:53:00,
2014-12-24 12:02:00,68.0,20.0,-100.00,SSW,203,7.0,14.0,16,0.00,,,0.00,612.000000,,2014-12-24 20:02:00,
2014-12-24 12:12:00,68.0,20.0,-100.00,SSW,203,7.0,14.0,16,0.00,,,0.00,612.000000,,2014-12-24 20:12:00,
2014-12-24 12:42:00,67.0,23.0,-100.00,WSW,238,6.0,15.0,19,0.00,,,0.00,458.000000,,2014-12-24 20:42:00,
2014-12-24 12:52:00,67.0,23.0,-100.00,WSW,238,6.0,15.0,19,0.00,,,0.00,458.000000,,2014-12-24 20:52:00,
2014-12-24 13:02:00,67.0,23.0,-100.00,WSW,238,6.0,15.0,19,0.00,,,0.00,458.000000,,2014-12-24 21:02:00,
2014-12-24 13:12:00,67.0,23.0,-100.00,WSW,238,6.0,15.0,19,0.00,,,0.00,458.000000,,2014-12-24 21:12:00,
2014-12-24 13:43:00,68.0,25.0,-100.00,WSW,252,7.0,20.0,20,0.00,,,0.00,519.000000,,2014-12-24 21:43:00,
2014-12-24 13:54:00,68.0,25.0,-100.00,WSW,252,7.0,20.0,20,0.00,,,0.00,519.000000,,2014-12-24 21:54:00,
2014-12-24 14:04:00,68.0,25.0,-100.00,WSW,252,7.0,20.0,20,0.00,,,0.00,519.000000,,2014-12-24 22:04:00,
2014-12-24 14:13:00,68.0,25.0,-100.00,WSW,252,7.0,20.0,20,0.00,,,0.00,519.000000,,2014-12-24 22:13:00,
2014-12-24 14:43:00,66.0,26.0,-100.00,SSW,213,6.0,14.0,22,0.00,,,0.00,445.000000,,2014-12-24 22:43:00,
2014-12-24 14:53:00,66.0,26.0,-100.00,SSW,213,6.0,14.0,22,0.00,,,0.00,445.000000,,2014-12-24 22:53:00,
2014-12-24 15:03:00,66.0,26.0,-100.00,SSW,213,6.0,14.0,22,0.00,,,0.00,445.000000,,2014-12-24 23:03:00,
2014-12-24 15:12:00,66.0,26.0,-100.00,SSW,213,6.0,14.0,22,0.00,,,0.00,445.000000,,2014-12-24 23:12:00,
2014-12-24 15:43:00,63.0,26.0,-100.00,West,270,8.0,17.0,24,0.00,,,0.00,256.000000,,2014-12-24 23:43:00,
2014-12-24 15:53:00,63.0,26.0,-100.00,West,270,8.0,17.0,24,0.00,,,0.00,256.000000,,2014-12-24 23:53:00,
2014-12-24 16:02:00,63.0,26.0,-100.00,West,270,8.0,17.0,24,0.00,,,0.00,256.000000,,2014-12-25 00:02:00,
2014-12-24 16:12:00,63.0,26.0,-100.00,West,270,8.0,17.0,24,0.00,,,0.00,256.000000,,2014-12-25 00:12:00,
2014-12-24 16:42:00,60.0,29.0,-100.00,West,259,9.0,15.0,31,0.00,,,0.00,113.000000,,2014-12-25 00:42:00,
2014-12-24 16:52:00,60.0,29.0,-100.00,West,259,9.0,15.0,31,0.00,,,0.00,113.000000,,2014-12-25 00:52:00,
2014-12-24 17:02:00,60.0,29.0,-100.00,West,259,9.0,15.0,31,0.00,,,0.00,113.000000,,2014-12-25 01:02:00,
2014-12-24 17:12:00,60.0,29.0,-100.00,West,259,9.0,15.0,31,0.00,,,0.00,113.000000,,2014-12-25 01:12:00,
2014-12-24 17:42:00,57.0,31.0,-100.00,WSW,246,6.0,16.0,37,0.00,,,0.00,13.000000,,2014-12-25 01:42:00,
2014-12-24 17:52:00,57.0,31.0,-100.00,WSW,246,6.0,16.0,37,0.00,,,0.00,13.000000,,2014-12-25 01:52:00,